Time;durP1;ratioP1;P1;durP2;ratioP2;P2;SDS_P1;SDS_P2;PMS_P1;PMS_P2;Temp;Humidity;BMP_temperature;BMP_pressure;BME280_temperature;BME280_humidity;BME280_pressure;Samples;Min_cycle;Max_cycle;Signal;HPM_P1;HPM_P2
2021/03/05 00:00:14;;;;;;;102.47;72.45;;;8.00;87.30;;;;;;5056590;28;20033;-72
2021/03/05 00:02:40;;;;;;;104.78;73.30;;;7.90;87.30;;;;;;5056223;28;20359;-72
2021/03/05 00:05:07;;;;;;;107.45;75.57;;;8.00;86.90;;;;;;5056249;28;20025;-72
2021/03/05 00:07:34;;;;;;;111.28;77.95;;;8.00;86.50;;;;;;5055435;28;20017;-72
2021/03/05 00:09:59;;;;;;;112.60;77.28;;;8.00;86.30;;;;;;5056157;28;20036;-72
2021/03/05 00:12:25;;;;;;;111.50;79.30;;;7.90;85.90;;;;;;5056140;28;20029;-72
2021/03/05 00:14:51;;;;;;;115.72;79.53;;;7.90;85.70;;;;;;5056302;28;20013;-72
2021/03/05 00:17:17;;;;;;;108.50;77.63;;;7.80;85.70;;;;;;5056548;28;20043;-72
2021/03/05 00:19:43;;;;;;;118.72;80.03;;;7.80;85.50;;;;;;5055929;28;20044;-72
2021/03/05 00:22:08;;;;;;;110.07;79.60;;;7.90;85.40;;;;;;5056025;28;20035;-72
2021/03/05 00:24:35;;;;;;;106.38;77.25;;;7.80;85.20;;;;;;5056007;28;20036;-72
2021/03/05 00:27:01;;;;;;;107.45;76.53;;;7.90;85.30;;;;;;5054922;28;20345;-72
2021/03/05 00:29:27;;;;;;;110.20;79.40;;;7.90;85.00;;;;;;5056024;28;20033;-72
2021/03/05 00:31:53;;;;;;;111.93;76.50;;;8.00;84.80;;;;;;5056226;28;20100;-72
2021/03/05 00:34:20;;;;;;;114.50;77.55;;;7.90;84.70;;;;;;5055932;28;20496;-72
2021/03/05 00:36:46;;;;;;;105.25;73.95;;;7.90;84.50;;;;;;5055175;28;20317;-72
2021/03/05 00:39:11;;;;;;;104.32;74.00;;;7.90;84.80;;;;;;5057721;28;20028;-72
2021/03/05 00:41:37;;;;;;;98.57;73.53;;;7.90;84.90;;;;;;5059599;28;20029;-72
2021/03/05 00:44:04;;;;;;;102.72;71.88;;;7.90;85.00;;;;;;5059628;28;20317;-72
2021/03/05 00:46:30;;;;;;;103.07;74.50;;;7.90;84.90;;;;;;5059717;28;20367;-72
2021/03/05 00:48:56;;;;;;;110.60;71.78;;;7.80;85.00;;;;;;5059451;28;20421;-72
2021/03/05 00:51:22;;;;;;;103.35;72.50;;;7.70;85.10;;;;;;5059961;28;20071;-72
2021/03/05 00:53:47;;;;;;;104.88;72.65;;;7.70;85.40;;;;;;5059280;28;20025;-72
2021/03/05 00:56:13;;;;;;;104.22;72.63;;;7.70;85.40;;;;;;5059594;28;20021;-72
2021/03/05 00:58:39;;;;;;;101.60;70.97;;;7.70;85.60;;;;;;5059285;28;20354;-72
2021/03/05 01:01:05;;;;;;;100.93;71.10;;;7.70;86.10;;;;;;5058164;28;20021;-72
2021/03/05 01:03:31;;;;;;;103.75;68.47;;;7.80;87.00;;;;;;5059057;28;20029;-72
2021/03/05 01:05:57;;;;;;;104.40;71.57;;;7.80;87.60;;;;;;5059312;28;20018;-72
2021/03/05 01:08:23;;;;;;;98.43;69.53;;;7.80;87.70;;;;;;5059094;28;20040;-72
2021/03/05 01:10:49;;;;;;;109.85;71.07;;;7.80;87.40;;;;;;5059037;28;20044;-72
2021/03/05 01:13:16;;;;;;;98.78;69.68;;;7.90;87.30;;;;;;5058882;28;20025;-72
2021/03/05 01:15:42;;;;;;;97.47;72.13;;;7.90;87.00;;;;;;5058996;28;20059;-72
2021/03/05 01:18:07;;;;;;;97.68;68.03;;;7.90;86.40;;;;;;5058884;28;20037;-74
2021/03/05 01:20:34;;;;;;;103.30;70.18;;;7.90;86.30;;;;;;5058715;28;20049;-72
2021/03/05 01:22:59;;;;;;;108.07;74.25;;;7.90;86.60;;;;;;5058678;28;20108;-74
2021/03/05 01:25:27;;;;;;;99.80;69.38;;;7.80;86.20;;;;;;5059352;28;20096;-72
2021/03/05 01:27:53;;;;;;;104.07;71.85;;;7.80;86.30;;;;;;5058649;28;20025;-72
2021/03/05 01:30:20;;;;;;;107.45;75.03;;;7.80;86.20;;;;;;5058640;28;20367;-74
2021/03/05 01:32:46;;;;;;;101.05;73.05;;;7.80;86.20;;;;;;5058486;28;20091;-74
2021/03/05 01:35:15;;;;;;;101.20;70.43;;;7.80;86.20;;;;;;5058529;28;20017;-74
2021/03/05 01:37:41;;;;;;;101.63;70.80;;;7.80;86.20;;;;;;5058630;28;20032;-72
2021/03/05 01:40:10;;;;;;;99.30;70.68;;;7.80;86.40;;;;;;5058533;28;20421;-72
2021/03/05 01:42:36;;;;;;;99.65;70.63;;;7.80;86.40;;;;;;5058754;28;20025;-72
2021/03/05 01:45:05;;;;;;;102.53;70.60;;;7.80;86.30;;;;;;5058571;28;20036;-72
2021/03/05 01:47:30;;;;;;;99.78;72.22;;;7.90;86.20;;;;;;5058436;28;20040;-72
2021/03/05 01:49:56;;;;;;;97.70;68.75;;;7.90;86.20;;;;;;5058500;28;20021;-72
2021/03/05 01:52:22;;;;;;;100.88;69.35;;;7.80;86.60;;;;;;5058462;28;20035;-72
2021/03/05 01:54:47;;;;;;;97.47;68.25;;;7.80;87.40;;;;;;5058273;28;20025;-72
2021/03/05 01:57:13;;;;;;;99.55;68.97;;;7.80;87.80;;;;;;5057141;28;20504;-72
2021/03/05 01:59:39;;;;;;;99.68;69.57;;;7.80;88.10;;;;;;5058385;28;20043;-72
2021/03/05 02:02:07;;;;;;;104.03;72.43;;;7.80;87.90;;;;;;5058037;28;20021;-72
2021/03/05 02:04:34;;;;;;;106.30;74.75;;;7.70;87.90;;;;;;5057924;28;20108;-72
2021/03/05 02:07:07;;;;;;;101.78;72.07;;;7.70;88.00;;;;;;5058032;28;20067;-72
2021/03/05 02:09:37;;;;;;;97.32;67.30;;;7.60;88.20;;;;;;5058050;28;20021;-72
2021/03/05 02:12:05;;;;;;;106.18;72.40;;;7.60;88.30;;;;;;5058116;28;20059;-72
2021/03/05 02:14:33;;;;;;;104.22;74.30;;;7.70;88.10;;;;;;5057742;28;20397;-72
2021/03/05 02:17:10;;;;;;;108.78;74.00;;;7.60;87.90;;;;;;5058087;28;20301;-72
2021/03/05 02:19:52;;;;;;;100.22;71.30;;;7.60;87.90;;;;;;5057535;28;20127;-72
2021/03/05 02:22:55;;;;;;;98.22;69.53;;;7.60;87.80;;;;;;5057855;28;20037;-74
2021/03/05 02:25:41;;;;;;;95.55;67.00;;;7.70;88.00;;;;;;5056584;28;20328;-74
2021/03/05 02:28:44;;;;;;;103.32;66.53;;;7.70;88.20;;;;;;5057197;28;20063;-74
2021/03/05 02:31:20;;;;;;;100.00;67.18;;;7.60;88.20;;;;;;5057569;28;20027;-74
2021/03/05 02:33:46;;;;;;;104.97;67.75;;;7.50;88.50;;;;;;5057468;28;20021;-74
2021/03/05 02:36:17;;;;;;;96.45;66.63;;;7.50;88.70;;;;;;5057729;28;20063;-74
2021/03/05 02:38:54;;;;;;;104.03;71.07;;;7.50;88.50;;;;;;5056335;28;20036;-72
2021/03/05 02:41:21;;;;;;;100.78;69.75;;;7.60;88.30;;;;;;5057621;28;20021;-72
2021/03/05 02:43:49;;;;;;;95.18;69.78;;;7.50;87.50;;;;;;5056110;28;20068;-72
2021/03/05 02:46:14;;;;;;;101.10;71.82;;;7.50;87.70;;;;;;5057625;28;20024;-72
2021/03/05 02:48:43;;;;;;;108.10;71.32;;;7.40;87.70;;;;;;5057202;28;20052;-72
2021/03/05 02:51:09;;;;;;;99.03;69.15;;;7.40;87.60;;;;;;5057035;28;20029;-74
2021/03/05 02:53:38;;;;;;;102.25;71.32;;;7.30;87.80;;;;;;5056980;28;20037;-72
2021/03/05 02:56:10;;;;;;;108.82;70.85;;;7.30;88.10;;;;;;5057075;28;20429;-72
2021/03/05 02:58:41;;;;;;;108.00;74.40;;;7.20;88.30;;;;;;5057155;28;20111;-74
2021/03/05 03:01:09;;;;;;;105.38;75.78;;;7.20;88.30;;;;;;5056579;28;20032;-74
2021/03/05 03:03:37;;;;;;;112.68;74.85;;;7.20;88.90;;;;;;5056889;28;20368;-74
2021/03/05 03:06:10;;;;;;;106.13;74.68;;;7.20;89.20;;;;;;5057225;28;20021;-74
2021/03/05 03:08:36;;;;;;;102.72;75.07;;;7.20;89.10;;;;;;5056857;28;20025;-74
2021/03/05 03:11:04;;;;;;;102.60;69.25;;;7.20;88.90;;;;;;5056795;28;20032;-74
2021/03/05 03:13:35;;;;;;;101.80;73.43;;;7.30;88.70;;;;;;5056734;28;20025;-74
2021/03/05 03:16:03;;;;;;;108.38;71.72;;;7.20;87.90;;;;;;5057247;28;20107;-74
2021/03/05 03:18:31;;;;;;;100.47;74.75;;;7.20;87.20;;;;;;5056685;28;20033;-74
2021/03/05 03:21:00;;;;;;;105.22;75.35;;;7.20;86.10;;;;;;5055463;28;20049;-74
2021/03/05 03:23:26;;;;;;;109.32;74.00;;;7.20;85.70;;;;;;5056589;28;20082;-74
2021/03/05 03:25:53;;;;;;;106.47;73.68;;;7.20;85.80;;;;;;5056955;28;20309;-74
2021/03/05 03:28:20;;;;;;;99.22;71.43;;;7.10;86.00;;;;;;5056548;28;20139;-74
2021/03/05 03:30:46;;;;;;;102.35;74.07;;;7.00;86.50;;;;;;5056683;28;20021;-74
2021/03/05 03:33:13;;;;;;;107.72;74.20;;;6.90;87.10;;;;;;5056732;28;20032;-74
2021/03/05 03:35:40;;;;;;;107.05;74.25;;;6.80;87.20;;;;;;5056603;28;20024;-74
2021/03/05 03:38:08;;;;;;;108.47;76.68;;;6.80;87.50;;;;;;5056491;28;20116;-72
2021/03/05 03:40:35;;;;;;;112.90;77.65;;;6.70;87.60;;;;;;5055524;28;20376;-72
2021/03/05 03:43:03;;;;;;;110.53;78.38;;;6.70;87.60;;;;;;5056434;28;20052;-72
2021/03/05 03:45:31;;;;;;;112.30;79.13;;;6.60;87.50;;;;;;5056915;28;20108;-72
2021/03/05 03:47:59;;;;;;;116.30;78.50;;;6.60;87.60;;;;;;5056299;28;20047;-72
2021/03/05 03:50:37;;;;;;;115.95;78.07;;;6.50;87.60;;;;;;5056406;28;20463;-72
2021/03/05 03:53:10;;;;;;;111.07;77.22;;;6.40;87.60;;;;;;5056417;28;20075;-72
2021/03/05 03:55:36;;;;;;;111.35;79.15;;;6.40;87.80;;;;;;5055396;28;20025;-72
2021/03/05 03:58:03;;;;;;;116.03;77.53;;;6.40;87.60;;;;;;5056316;28;20039;-72
2021/03/05 04:00:30;;;;;;;110.70;75.88;;;6.40;87.80;;;;;;5056365;28;20040;-72
2021/03/05 04:03:01;;;;;;;109.40;76.78;;;6.40;88.00;;;;;;5056480;28;20083;-72
2021/03/05 04:05:30;;;;;;;114.38;76.07;;;6.40;89.20;;;;;;5056596;28;20094;-72
2021/03/05 04:07:57;;;;;;;104.57;74.00;;;6.40;88.90;;;;;;5056225;28;20370;-72
2021/03/05 04:10:23;;;;;;;112.72;76.80;;;6.40;89.30;;;;;;5056259;28;20048;-72
2021/03/05 04:12:50;;;;;;;112.07;75.72;;;6.40;88.50;;;;;;5057507;28;20313;-72
2021/03/05 04:15:17;;;;;;;116.82;77.45;;;6.40;88.50;;;;;;5060133;28;20021;-72
2021/03/05 04:17:43;;;;;;;110.90;77.90;;;6.30;89.50;;;;;;5060330;28;20082;-74
2021/03/05 04:20:12;;;;;;;115.43;79.10;;;6.30;89.60;;;;;;5059934;28;20464;-74
2021/03/05 04:22:38;;;;;;;117.13;79.32;;;6.30;90.00;;;;;;5059897;28;20035;-74
2021/03/05 04:25:04;;;;;;;125.30;84.47;;;6.40;89.70;;;;;;5060178;28;20100;-72
2021/03/05 04:27:30;;;;;;;128.30;86.57;;;6.40;89.60;;;;;;5059956;28;20025;-72
2021/03/05 04:29:55;;;;;;;122.13;86.15;;;6.50;89.80;;;;;;5059859;28;20071;-74
2021/03/05 04:32:21;;;;;;;129.30;89.10;;;6.60;89.80;;;;;;5059937;28;20028;-72
2021/03/05 04:34:47;;;;;;;128.05;89.10;;;6.70;89.50;;;;;;5059693;28;20025;-72
2021/03/05 04:37:12;;;;;;;125.25;89.38;;;6.80;89.50;;;;;;5059745;28;20074;-72
2021/03/05 04:39:38;;;;;;;130.88;91.43;;;6.80;89.40;;;;;;5059722;28;20040;-72
2021/03/05 04:42:04;;;;;;;118.93;85.63;;;6.90;89.80;;;;;;5058554;28;20124;-72
2021/03/05 04:44:30;;;;;;;124.82;89.28;;;6.90;90.20;;;;;;5059634;28;20317;-72
2021/03/05 04:46:56;;;;;;;116.63;79.47;;;6.90;89.10;;;;;;5059485;28;20044;-72
2021/03/05 04:49:22;;;;;;;115.13;79.93;;;6.90;88.00;;;;;;5059704;28;20021;-72
2021/03/05 04:51:47;;;;;;;117.35;78.78;;;6.90;87.40;;;;;;5059460;28;20021;-72
2021/03/05 04:54:13;;;;;;;111.35;77.30;;;6.80;87.40;;;;;;5059309;28;20093;-72
2021/03/05 04:56:39;;;;;;;120.50;76.95;;;6.60;87.50;;;;;;5059583;28;20059;-72
2021/03/05 04:59:04;;;;;;;112.15;75.95;;;6.50;88.00;;;;;;5059273;28;20100;-72
2021/03/05 05:01:30;;;;;;;111.18;77.43;;;6.50;88.20;;;;;;5059208;28;20415;-72
2021/03/05 05:03:56;;;;;;;118.40;77.57;;;6.50;89.10;;;;;;5059194;28;20036;-72
2021/03/05 05:06:22;;;;;;;115.82;76.32;;;6.50;88.30;;;;;;5059354;28;20094;-72
2021/03/05 05:08:48;;;;;;;116.63;78.57;;;6.40;88.30;;;;;;5059384;28;20417;-72
2021/03/05 05:11:14;;;;;;;117.13;78.57;;;6.40;88.80;;;;;;5059072;28;20031;-72
2021/03/05 05:13:40;;;;;;;109.28;77.45;;;6.30;89.40;;;;;;5058929;28;20021;-72
2021/03/05 05:16:06;;;;;;;121.13;79.78;;;6.30;90.20;;;;;;5059469;28;20360;-72
2021/03/05 05:18:32;;;;;;;114.28;76.88;;;6.30;90.20;;;;;;5059156;28;20029;-74
2021/03/05 05:20:58;;;;;;;112.38;77.32;;;6.30;89.90;;;;;;5058720;28;20053;-74
2021/03/05 05:23:24;;;;;;;114.57;77.10;;;6.30;89.70;;;;;;5058996;28;20025;-74
2021/03/05 05:25:49;;;;;;;120.90;84.38;;;6.20;89.50;;;;;;5058333;28;20029;-74
2021/03/05 05:28:15;;;;;;;124.53;85.90;;;6.20;89.30;;;;;;5058729;28;20025;-74
2021/03/05 05:30:40;;;;;;;118.28;81.32;;;6.20;89.20;;;;;;5058938;28;20031;-74
2021/03/05 05:33:06;;;;;;;105.95;73.60;;;6.10;88.60;;;;;;5058576;28;20025;-74
2021/03/05 05:35:32;;;;;;;113.82;76.97;;;6.00;87.80;;;;;;5058828;28;20106;-74
2021/03/05 05:37:58;;;;;;;113.22;78.55;;;5.90;88.10;;;;;;5058579;28;20059;-74
2021/03/05 05:40:24;;;;;;;128.15;85.28;;;5.80;88.40;;;;;;5058541;28;20029;-74
2021/03/05 05:42:51;;;;;;;140.65;90.63;;;5.80;88.40;;;;;;5058437;28;20439;-74
2021/03/05 05:45:16;;;;;;;136.73;94.75;;;5.70;88.80;;;;;;5058634;28;20404;-74
2021/03/05 05:47:43;;;;;;;137.90;95.05;;;5.60;89.40;;;;;;5058233;28;20041;-74
2021/03/05 05:50:10;;;;;;;143.75;97.43;;;5.50;89.50;;;;;;5058277;28;20059;-74
2021/03/05 05:52:36;;;;;;;139.10;94.32;;;5.40;89.70;;;;;;5058468;28;20068;-74
2021/03/05 05:55:06;;;;;;;133.57;89.78;;;5.30;89.90;;;;;;5058221;28;20025;-74
2021/03/05 05:57:35;;;;;;;136.75;84.00;;;5.30;89.80;;;;;;5058156;28;20021;-72
2021/03/05 06:00:02;;;;;;;132.52;77.03;;;5.20;89.40;;;;;;5058137;28;20035;-72
2021/03/05 06:02:29;;;;;;;112.80;73.43;;;5.20;90.00;;;;;;5057977;28;20247;-72
2021/03/05 06:04:56;;;;;;;109.85;74.40;;;5.20;90.10;;;;;;5058078;28;20059;-72
2021/03/05 06:07:23;;;;;;;123.55;82.20;;;5.20;90.10;;;;;;5057980;28;20060;-72
2021/03/05 06:09:49;;;;;;;137.52;88.82;;;5.20;90.80;;;;;;5058183;28;20021;-72
2021/03/05 06:12:16;;;;;;;114.05;75.82;;;5.30;93.10;;;;;;5057797;28;20025;-72
2021/03/05 06:14:42;;;;;;;126.10;82.28;;;5.50;90.90;;;;;;5058007;28;20099;-72
2021/03/05 06:17:09;;;;;;;124.70;83.35;;;5.60;90.30;;;;;;5058123;28;20056;-72
2021/03/05 06:19:35;;;;;;;125.05;81.93;;;5.70;90.90;;;;;;5056533;28;20053;-72
2021/03/05 06:22:01;;;;;;;124.85;80.05;;;5.70;90.40;;;;;;5057941;28;20036;-72
2021/03/05 06:24:28;;;;;;;111.80;77.00;;;5.70;89.70;;;;;;5057797;28;20523;-72
2021/03/05 06:26:58;;;;;;;119.13;78.03;;;5.70;88.60;;;;;;5057587;28;20040;-72
2021/03/05 06:29:38;;;;;;;111.50;75.45;;;5.80;89.00;;;;;;5057609;28;20321;-74
2021/03/05 06:32:05;;;;;;;110.13;73.20;;;5.80;88.50;;;;;;5056499;28;20321;-74
2021/03/05 06:34:44;;;;;;;110.50;73.88;;;5.90;88.60;;;;;;5057332;28;20024;-74
2021/03/05 06:37:09;;;;;;;119.20;77.25;;;5.90;89.00;;;;;;5056718;28;20025;-72
2021/03/05 06:39:36;;;;;;;142.02;71.65;;;6.00;89.20;;;;;;5057343;28;20131;-72
2021/03/05 06:42:05;;;;;;;106.28;68.45;;;6.10;88.60;;;;;;5057570;28;20029;-72
2021/03/05 06:44:31;;;;;;;98.60;67.13;;;6.20;87.20;;;;;;5057444;28;20029;-72
2021/03/05 06:47:06;;;;;;;102.28;68.70;;;6.40;86.50;;;;;;5057194;28;20033;-72
2021/03/05 06:49:31;;;;;;;96.13;67.00;;;6.60;86.90;;;;;;5057255;28;20053;-72
2021/03/05 06:51:57;;;;;;;132.35;85.05;;;6.70;86.40;;;;;;5057168;28;20365;-72
2021/03/05 06:54:29;;;;;;;133.45;91.18;;;6.80;86.50;;;;;;5057301;28;20116;-72
2021/03/05 06:56:55;;;;;;;136.02;91.68;;;6.90;87.80;;;;;;5057101;28;20079;-72
2021/03/05 06:59:22;;;;;;;130.27;90.63;;;7.00;88.50;;;;;;5057046;28;20029;-72
2021/03/05 07:01:48;;;;;;;136.13;89.68;;;7.10;88.70;;;;;;5057241;28;20419;-72
2021/03/05 07:04:35;;;;;;;136.52;88.28;;;7.20;88.30;;;;;;5056855;28;20057;-74
2021/03/05 07:07:04;;;;;;;117.75;84.35;;;7.20;88.00;;;;;;5056529;28;20029;-74
2021/03/05 07:09:39;;;;;;;125.88;84.25;;;7.30;87.60;;;;;;5057140;28;20037;-74
2021/03/05 07:12:11;;;;;;;125.40;85.22;;;7.30;87.30;;;;;;5057071;28;20096;-74
2021/03/05 07:14:40;;;;;;;128.65;88.28;;;7.30;88.50;;;;;;5056804;28;20029;-74
2021/03/05 07:17:06;;;;;;;120.97;84.10;;;7.30;88.60;;;;;;5057040;28;20325;-74
2021/03/05 07:19:34;;;;;;;119.07;80.05;;;7.40;89.20;;;;;;5056591;28;20055;-74
2021/03/05 07:22:00;;;;;;;123.20;81.20;;;7.40;88.60;;;;;;5056724;28;20107;-74
2021/03/05 07:24:28;;;;;;;113.65;78.25;;;7.60;87.80;;;;;;5056621;28;20035;-74
2021/03/05 07:27:01;;;;;;;114.40;78.55;;;7.70;88.00;;;;;;5056903;28;20023;-74
2021/03/05 07:29:34;;;;;;;117.10;79.10;;;7.70;87.40;;;;;;5056920;28;20025;-74
2021/03/05 07:32:17;;;;;;;121.50;80.72;;;7.60;87.40;;;;;;5056855;28;20352;-74
2021/03/05 07:34:55;;;;;;;111.35;78.32;;;7.70;87.30;;;;;;5056633;28;20033;-74
2021/03/05 07:37:25;;;;;;;112.75;77.55;;;7.70;86.70;;;;;;5056610;28;20017;-74
2021/03/05 07:39:54;;;;;;;117.93;79.22;;;7.70;87.30;;;;;;5056738;28;20079;-74
2021/03/05 07:42:21;;;;;;;112.47;78.13;;;7.80;87.80;;;;;;5056374;28;20417;-74
2021/03/05 07:44:47;;;;;;;110.93;76.60;;;7.90;86.90;;;;;;5056656;28;20356;-74
2021/03/05 07:47:15;;;;;;;117.95;79.13;;;8.00;86.00;;;;;;5057035;28;20055;-74
2021/03/05 07:49:41;;;;;;;113.78;78.18;;;8.10;86.20;;;;;;5059500;28;20487;-74
2021/03/05 07:52:08;;;;;;;114.00;78.68;;;8.20;84.90;;;;;;5060526;28;20021;-74
2021/03/05 07:54:39;;;;;;;118.63;79.80;;;8.30;86.20;;;;;;5060465;28;20071;-74
2021/03/05 07:57:25;;;;;;;111.40;77.13;;;8.60;83.50;;;;;;5060700;28;20021;-74
2021/03/05 07:59:52;;;;;;;109.10;74.67;;;8.70;82.60;;;;;;5060271;28;20065;-74
2021/03/05 08:02:19;;;;;;;109.28;77.50;;;8.70;83.80;;;;;;5060565;28;20052;-74
2021/03/05 08:04:50;;;;;;;102.20;74.30;;;8.80;83.60;;;;;;5059301;28;20091;-74
2021/03/05 08:07:17;;;;;;;103.25;75.32;;;8.90;82.20;;;;;;5060499;28;20321;-74
2021/03/05 08:09:42;;;;;;;104.75;73.13;;;9.10;82.00;;;;;;5060224;28;20429;-74
2021/03/05 08:13:03;;;;;;;100.40;72.80;;;9.30;81.30;;;;;;5060154;28;20099;-74
2021/03/05 08:15:22;;;;;;;97.68;69.88;;;9.50;80.00;;;;;;5060177;28;20308;-74
2021/03/05 08:17:49;;;;;;;102.72;71.80;;;9.50;79.60;;;;;;5060081;28;20057;-74
2021/03/05 08:20:18;;;;;;;98.57;72.35;;;9.60;79.60;;;;;;5059945;28;20094;-74
2021/03/05 08:22:56;;;;;;;104.55;72.93;;;9.80;77.20;;;;;;5060137;28;20348;-74
2021/03/05 08:25:31;;;;;;;99.00;71.20;;;10.00;77.60;;;;;;5059928;28;20060;-74
2021/03/05 08:27:58;;;;;;;97.40;70.15;;;10.20;75.90;;;;;;5059921;28;20025;-74
2021/03/05 08:30:29;;;;;;;92.63;68.53;;;10.40;76.40;;;;;;5059856;28;20071;-74
2021/03/05 08:33:00;;;;;;;94.45;65.97;;;10.60;73.50;;;;;;5059938;28;20021;-74
2021/03/05 08:35:31;;;;;;;88.95;65.20;;;10.80;73.40;;;;;;5059980;28;20063;-74
2021/03/05 08:38:08;;;;;;;86.78;62.80;;;11.30;73.00;;;;;;5059678;28;20033;-72
2021/03/05 08:40:46;;;;;;;94.53;65.30;;;11.70;69.70;;;;;;5059718;28;20048;-72
2021/03/05 08:43:30;;;;;;;94.90;65.15;;;12.10;71.00;;;;;;5059791;28;20090;-72
2021/03/05 08:46:07;;;;;;;88.18;64.47;;;12.80;65.80;;;;;;5060004;28;20025;-72
2021/03/05 08:48:40;;;;;;;86.20;61.55;;;13.20;66.30;;;;;;5059722;28;20384;-72
2021/03/05 08:51:11;;;;;;;90.35;63.47;;;13.60;63.60;;;;;;5058395;28;20031;-73
2021/03/05 08:53:45;;;;;;;83.40;61.70;;;14.00;62.40;;;;;;5059272;28;20405;-73
2021/03/05 08:56:19;;;;;;;82.53;62.47;;;14.20;62.20;;;;;;5059972;28;20021;-73
2021/03/05 08:59:05;;;;;;;83.32;60.42;;;14.30;61.20;;;;;;5058522;28;20440;-73
2021/03/05 09:01:37;;;;;;;85.18;63.75;;;14.30;59.90;;;;;;5059265;28;20024;-73
2021/03/05 09:04:17;;;;;;;87.97;62.90;;;14.10;59.50;;;;;;5059211;28;20475;-73
2021/03/05 09:06:56;;;;;;;82.88;60.30;;;14.20;60.10;;;;;;5059246;28;20021;-72
2021/03/05 09:09:24;;;;;;;82.05;61.45;;;14.50;60.00;;;;;;5059495;28;20367;-73
2021/03/05 09:12:13;;;;;;;68.10;55.60;;;14.80;59.70;;;;;;5059322;28;20021;-73
2021/03/05 09:14:40;;;;;;;76.22;58.33;;;15.20;62.70;;;;;;5058920;28;20029;-73
2021/03/05 09:17:07;;;;;;;76.75;58.55;;;15.40;60.50;;;;;;5059270;28;20320;-73
2021/03/05 09:19:45;;;;;;;72.30;56.47;;;15.10;61.50;;;;;;5058947;28;20049;-73
2021/03/05 09:22:16;;;;;;;73.45;57.38;;;15.40;61.00;;;;;;5059051;28;20056;-73
2021/03/05 09:24:52;;;;;;;74.07;57.50;;;15.70;60.00;;;;;;5058958;28;20352;-73
2021/03/05 09:27:29;;;;;;;76.60;58.03;;;15.80;59.60;;;;;;5059124;28;20032;-73
2021/03/05 09:29:56;;;;;;;68.80;56.45;;;15.60;60.20;;;;;;5059061;28;20021;-73
2021/03/05 09:32:23;;;;;;;70.57;56.13;;;15.50;60.40;;;;;;5059287;28;20309;-73
2021/03/05 09:34:58;;;;;;;75.13;57.75;;;15.60;60.00;;;;;;5058614;28;20025;-73
2021/03/05 09:37:29;;;;;;;77.45;58.45;;;15.50;59.30;;;;;;5058930;28;20048;-73
2021/03/05 09:39:58;;;;;;;77.32;58.33;;;14.90;62.40;;;;;;5058578;28;20036;-73
2021/03/05 09:42:42;;;;;;;69.75;56.22;;;14.90;62.40;;;;;;5058440;28;20021;-73
2021/03/05 09:45:09;;;;;;;77.93;57.83;;;14.90;62.10;;;;;;5058653;28;20086;-73
2021/03/05 09:47:50;;;;;;;72.18;59.28;;;14.90;62.30;;;;;;5058511;28;20036;-73
2021/03/05 09:50:21;;;;;;;75.72;58.50;;;15.00;63.20;;;;;;5058383;28;20029;-73
2021/03/05 09:52:47;;;;;;;76.50;59.20;;;15.30;61.20;;;;;;5058247;28;20021;-73
2021/03/05 09:55:27;;;;;;;74.85;60.33;;;15.20;60.00;;;;;;5058529;28;20025;-73
2021/03/05 09:57:54;;;;;;;78.30;58.78;;;15.30;60.50;;;;;;5058382;28;20436;-73
2021/03/05 10:00:32;;;;;;;78.40;59.70;;;15.40;60.00;;;;;;5058140;28;20108;-73
2021/03/05 10:03:16;;;;;;;75.75;59.97;;;15.10;61.30;;;;;;5058035;28;20032;-73
2021/03/05 10:05:44;;;;;;;72.60;58.83;;;15.00;62.60;;;;;;5058351;28;20029;-73
2021/03/05 10:08:15;;;;;;;83.53;62.85;;;15.30;62.30;;;;;;5058082;28;20021;-73
2021/03/05 10:11:10;;;;;;;76.80;58.88;;;15.40;61.80;;;;;;5057472;28;20025;-73
2021/03/05 10:13:46;;;;;;;75.78;58.28;;;15.10;62.10;;;;;;5042734;28;20022;-73
2021/03/05 10:16:21;;;;;;;80.07;57.65;;;15.00;60.40;;;;;;5038412;28;20040;-73
2021/03/05 10:18:49;;;;;;;74.18;56.60;;;15.10;62.10;;;;;;5037737;28;20059;-73
2021/03/05 10:21:18;;;;;;;75.82;56.95;;;15.20;62.50;;;;;;5038116;28;20041;-73
2021/03/05 10:23:44;;;;;;;71.53;54.97;;;15.30;60.80;;;;;;5037724;28;20029;-73
2021/03/05 10:26:18;;;;;;;70.40;54.78;;;15.00;61.80;;;;;;5038068;28;20108;-72
2021/03/05 10:28:45;;;;;;;74.43;55.30;;;14.70;63.20;;;;;;5037565;28;20021;-72
2021/03/05 10:31:12;;;;;;;75.57;54.83;;;14.40;62.80;;;;;;5037654;28;20028;-73
2021/03/05 10:33:42;;;;;;;69.13;54.75;;;14.20;62.40;;;;;;5037796;28;20104;-73
2021/03/05 10:36:10;;;;;;;79.63;56.50;;;13.80;64.70;;;;;;5037855;28;20028;-72
2021/03/05 10:38:37;;;;;;;72.25;56.72;;;13.80;65.00;;;;;;5037546;28;20036;-73
2021/03/05 10:41:04;;;;;;;73.00;54.25;;;14.40;65.00;;;;;;5037448;28;20033;-73
2021/03/05 10:43:35;;;;;;;71.25;54.58;;;14.70;62.40;;;;;;5037348;28;20429;-73
2021/03/05 10:46:02;;;;;;;69.78;53.50;;;15.10;61.50;;;;;;5037327;28;20425;-73
2021/03/05 10:48:27;;;;;;;77.03;54.38;;;15.30;60.70;;;;;;5037251;28;20068;-73
2021/03/05 10:50:53;;;;;;;74.20;55.40;;;15.00;61.80;;;;;;5037235;28;20045;-73
2021/03/05 10:53:20;;;;;;;74.18;56.35;;;15.10;61.00;;;;;;5037143;28;20024;-73
2021/03/05 10:55:45;;;;;;;70.97;56.00;;;15.60;59.00;;;;;;5037544;28;20318;-73
2021/03/05 10:58:12;;;;;;;72.55;56.53;;;16.20;60.20;;;;;;5037158;28;20151;-73
2021/03/05 11:00:37;;;;;;;68.32;53.85;;;16.90;58.20;;;;;;5036073;28;20424;-73
2021/03/05 11:03:03;;;;;;;73.00;54.97;;;17.20;58.10;;;;;;5037129;28;20064;-73
2021/03/05 11:05:29;;;;;;;81.63;57.60;;;17.30;55.30;;;;;;5037420;28;20025;-73
2021/03/05 11:07:55;;;;;;;74.38;53.05;;;17.40;57.70;;;;;;5037224;28;20421;-72
2021/03/05 11:10:21;;;;;;;73.50;56.38;;;17.10;56.10;;;;;;5037017;28;20104;-73
2021/03/05 11:12:48;;;;;;;68.43;56.92;;;16.30;57.70;;;;;;5037002;28;20021;-73
2021/03/05 11:15:16;;;;;;;80.22;56.58;;;15.70;58.80;;;;;;5037228;28;20034;-73
2021/03/05 11:17:43;;;;;;;71.10;56.20;;;15.10;61.10;;;;;;5036836;28;20433;-73
2021/03/05 11:20:09;;;;;;;73.28;54.45;;;14.70;61.60;;;;;;5036626;28;20068;-72
2021/03/05 11:22:35;;;;;;;74.30;56.45;;;14.20;63.10;;;;;;5036143;28;20032;-72
2021/03/05 11:25:03;;;;;;;84.47;57.70;;;14.10;64.40;;;;;;5036815;28;20095;-73
2021/03/05 11:27:28;;;;;;;79.57;58.30;;;14.20;65.20;;;;;;5036742;28;20034;-73
2021/03/05 11:29:54;;;;;;;79.13;57.72;;;14.10;64.00;;;;;;5036713;28;20428;-72
2021/03/05 11:32:20;;;;;;;72.70;55.72;;;14.50;64.30;;;;;;5037007;28;20022;-73
2021/03/05 11:34:45;;;;;;;71.78;54.92;;;15.30;64.30;;;;;;5036650;28;20033;-73
2021/03/05 11:37:11;;;;;;;71.55;54.55;;;16.10;59.60;;;;;;5036749;28;20033;-73
2021/03/05 11:39:37;;;;;;;66.13;52.30;;;16.60;57.40;;;;;;5036629;28;20074;-73
2021/03/05 11:42:03;;;;;;;67.15;54.25;;;16.40;58.20;;;;;;5036590;28;20421;-73
2021/03/05 11:44:29;;;;;;;76.07;54.17;;;15.90;59.10;;;;;;5036575;28;20029;-73
2021/03/05 11:46:55;;;;;;;68.18;54.10;;;15.10;61.00;;;;;;5036535;28;20038;-73
2021/03/05 11:49:20;;;;;;;75.63;56.38;;;14.50;64.00;;;;;;5036505;28;20018;-72
2021/03/05 11:51:46;;;;;;;74.90;56.33;;;14.30;65.50;;;;;;5036506;28;20051;-72
2021/03/05 11:54:12;;;;;;;72.43;56.22;;;14.10;64.50;;;;;;5036398;28;20024;-73
2021/03/05 11:56:38;;;;;;;75.20;54.78;;;14.00;65.30;;;;;;5036496;28;20059;-73
2021/03/05 11:59:05;;;;;;;76.15;54.30;;;13.90;66.70;;;;;;5036472;28;20021;-72
2021/03/05 12:01:33;;;;;;;74.70;55.45;;;13.90;65.20;;;;;;5036395;28;20029;-72
2021/03/05 12:03:58;;;;;;;77.32;55.72;;;14.30;65.70;;;;;;5036343;28;20329;-72
2021/03/05 12:06:26;;;;;;;73.35;55.72;;;14.30;66.70;;;;;;5036585;28;20025;-72
2021/03/05 12:08:53;;;;;;;70.25;54.33;;;14.10;65.10;;;;;;5036521;28;20079;-72
2021/03/05 12:11:18;;;;;;;80.30;56.33;;;13.70;66.10;;;;;;5036344;28;20443;-73
2021/03/05 12:13:45;;;;;;;76.20;55.28;;;13.50;67.10;;;;;;5036215;28;20104;-72
2021/03/05 12:16:12;;;;;;;78.68;56.42;;;13.40;67.50;;;;;;5036249;28;20032;-72
2021/03/05 12:18:38;;;;;;;76.38;55.65;;;13.40;66.70;;;;;;5036208;28;20046;-72
2021/03/05 12:21:04;;;;;;;74.47;56.60;;;13.60;68.50;;;;;;5036080;28;20098;-72
2021/03/05 12:23:32;;;;;;;73.63;53.28;;;13.70;67.90;;;;;;5036153;28;20037;-72
2021/03/05 12:25:58;;;;;;;73.30;55.72;;;13.70;66.60;;;;;;5036263;28;20319;-72
2021/03/05 12:28:24;;;;;;;70.25;53.53;;;14.10;67.70;;;;;;5036098;28;20443;-72
2021/03/05 12:30:49;;;;;;;69.22;52.55;;;14.70;65.80;;;;;;5036153;28;20064;-73
2021/03/05 12:33:15;;;;;;;67.22;52.20;;;15.10;63.70;;;;;;5036421;28;20021;-73
2021/03/05 12:35:41;;;;;;;71.05;53.80;;;15.30;63.70;;;;;;5040117;28;20028;-73